Time;durP1;ratioP1;P1;durP2;ratioP2;P2;SDS_P1;SDS_P2;PMS_P1;PMS_P2;Temp;Humidity;BMP_temperature;BMP_pressure;BME280_temperature;BME280_humidity;BME280_pressure;Samples;Min_cycle;Max_cycle;Signal;HPM_P1;HPM_P2
2022/05/16 00:02:28;;;;;;;3.10;2.80;;;18.70;94.30;;;;;;10505633;28;20624;-86
2022/05/16 00:07:30;;;;;;;3.47;3.20;;;18.80;94.30;;;;;;10513202;28;20230;-86
2022/05/16 00:12:34;;;;;;;4.10;3.10;;;18.80;94.40;;;;;;10494230;28;20204;-85
2022/05/16 00:17:36;;;;;;;3.43;3.13;;;18.80;94.40;;;;;;10518079;28;20235;-86
2022/05/16 00:22:39;;;;;;;3.23;3.03;;;18.80;93.60;;;;;;10522003;28;20648;-85
2022/05/16 00:27:43;;;;;;;3.10;2.80;;;18.80;93.30;;;;;;10495010;28;20223;-85
2022/05/16 00:32:48;;;;;;;3.13;2.90;;;18.80;93.30;;;;;;10509600;28;20200;-85
2022/05/16 00:37:51;;;;;;;3.73;3.00;;;18.80;93.40;;;;;;10487251;28;20216;-86
2022/05/16 00:43:02;;;;;;;3.70;2.77;;;18.70;93.10;;;;;;10538264;28;20450;-86
2022/05/16 00:48:05;;;;;;;2.90;2.70;;;18.70;91.40;;;;;;10497587;28;20247;-86
2022/05/16 00:53:08;;;;;;;3.77;2.80;;;18.70;93.00;;;;;;10535468;28;20643;-85
2022/05/16 00:58:15;;;;;;;3.10;2.90;;;18.70;94.70;;;;;;10497469;28;20569;-86
2022/05/16 01:08:43;;;;;;;2.73;2.63;;;18.60;94.20;;;;;;10490787;28;20201;-86
2022/05/16 01:13:47;;;;;;;3.00;2.80;;;18.60;94.50;;;;;;10501727;28;20701;-86
2022/05/16 01:18:49;;;;;;;3.47;3.20;;;18.50;94.40;;;;;;10513640;28;20217;-85
2022/05/16 01:23:56;;;;;;;3.17;2.97;;;18.50;94.70;;;;;;10478425;28;21938;-86
2022/05/16 01:28:58;;;;;;;3.40;3.13;;;18.50;94.30;;;;;;10503285;28;20196;-86
2022/05/16 01:34:01;;;;;;;3.77;3.40;;;18.40;94.10;;;;;;10515127;28;20264;-86
2022/05/16 01:39:05;;;;;;;4.00;2.90;;;18.30;94.00;;;;;;10523085;28;20683;-86
2022/05/16 01:44:07;;;;;;;3.67;3.37;;;18.30;94.10;;;;;;10524539;28;20224;-86
2022/05/16 01:49:11;;;;;;;3.27;2.97;;;18.20;94.10;;;;;;10540340;28;20220;-85
2022/05/16 01:54:15;;;;;;;3.20;3.00;;;18.20;94.40;;;;;;10543141;28;20241;-86
2022/05/16 01:59:17;;;;;;;3.23;3.03;;;18.10;94.60;;;;;;10526473;28;21308;-84
2022/05/16 02:04:19;;;;;;;4.30;2.97;;;18.10;94.10;;;;;;10540456;28;20247;-85
2022/05/16 02:09:23;;;;;;;4.40;2.90;;;18.10;94.40;;;;;;10559646;28;20204;-84
2022/05/16 02:14:25;;;;;;;3.50;3.23;;;18.10;95.40;;;;;;10526725;28;20228;-85
2022/05/16 02:19:27;;;;;;;3.30;3.10;;;18.10;95.50;;;;;;10533261;28;20763;-84
2022/05/16 02:24:40;;;;;;;3.53;3.23;;;18.20;95.80;;;;;;10531548;28;20228;-84
2022/05/16 02:29:42;;;;;;;3.93;3.60;;;18.20;95.80;;;;;;10509156;28;20196;-84
2022/05/16 02:34:45;;;;;;;4.13;3.93;;;18.30;96.10;;;;;;10520685;28;20686;-84
2022/05/16 02:39:49;;;;;;;4.20;3.90;;;18.30;95.90;;;;;;10525992;28;20172;-82
2022/05/16 02:44:52;;;;;;;4.40;3.90;;;18.30;95.10;;;;;;10555498;28;20228;-85
2022/05/16 02:49:54;;;;;;;3.80;3.50;;;18.30;94.50;;;;;;10523504;28;20249;-85
2022/05/16 02:55:00;;;;;;;4.40;3.57;;;18.30;94.80;;;;;;10527678;28;20261;-84
2022/05/16 03:00:04;;;;;;;3.60;3.40;;;18.30;94.90;;;;;;10543685;28;20292;-86
2022/05/16 03:05:08;;;;;;;4.10;3.80;;;18.30;95.10;;;;;;10524016;28;20626;-84
2022/05/16 03:10:15;;;;;;;3.57;3.23;;;18.40;96.00;;;;;;10543185;28;20218;-85
2022/05/16 03:15:18;;;;;;;3.80;3.60;;;18.40;96.20;;;;;;10528222;28;20226;-86
2022/05/16 03:20:20;;;;;;;4.23;3.83;;;18.50;95.20;;;;;;10511851;28;20630;-85
2022/05/16 03:25:23;;;;;;;4.17;3.80;;;18.60;95.40;;;;;;10529980;28;20224;-86
2022/05/16 03:30:26;;;;;;;3.83;3.53;;;18.70;96.00;;;;;;10534967;28;20685;-86
2022/05/16 03:35:28;;;;;;;4.53;4.23;;;18.70;95.70;;;;;;10524218;28;20231;-85
2022/05/16 03:40:45;;;;;;;4.67;4.37;;;18.70;95.80;;;;;;10528484;28;20202;-86
2022/05/16 03:45:47;;;;;;;3.87;3.57;;;18.70;95.90;;;;;;10527443;28;20233;-85
2022/05/16 03:50:49;;;;;;;3.30;3.10;;;18.80;96.40;;;;;;10555028;28;20242;-85
2022/05/16 03:55:52;;;;;;;2.57;2.40;;;18.80;96.40;;;;;;10542647;28;20606;-84
2022/05/16 04:00:55;;;;;;;3.77;3.50;;;18.80;95.70;;;;;;10502064;28;20223;-86
2022/05/16 04:05:57;;;;;;;3.53;2.70;;;18.80;96.10;;;;;;10527860;28;20215;-85
2022/05/16 04:11:02;;;;;;;4.10;3.90;;;18.80;96.30;;;;;;10546249;28;20245;-85
2022/05/16 04:16:05;;;;;;;4.13;3.90;;;18.80;96.40;;;;;;10541294;28;20226;-84
2022/05/16 04:21:07;;;;;;;3.77;3.53;;;18.80;96.70;;;;;;10512580;28;20204;-85
2022/05/16 04:26:11;;;;;;;3.33;3.00;;;18.80;96.60;;;;;;10526797;28;20216;-85
2022/05/16 04:31:13;;;;;;;3.50;3.20;;;18.80;97.30;;;;;;10526751;28;20200;-84
2022/05/16 04:36:15;;;;;;;4.60;3.20;;;18.90;97.60;;;;;;10518828;28;20748;-84
2022/05/16 04:46:38;;;;;;;4.57;4.17;;;18.90;98.60;;;;;;10525196;28;20227;-86
2022/05/16 04:51:40;;;;;;;4.23;3.60;;;18.90;99.10;;;;;;10526409;28;20207;-86
2022/05/16 04:56:46;;;;;;;3.90;3.70;;;18.90;99.20;;;;;;10534045;28;20230;-85
2022/05/16 05:01:49;;;;;;;4.37;4.00;;;18.80;99.60;;;;;;10532798;28;20196;-86
2022/05/16 05:06:51;;;;;;;4.50;4.20;;;18.90;99.90;;;;;;10550706;28;20265;-85
2022/05/16 05:17:14;;;;;;;4.20;4.00;;;18.90;99.90;;;;;;10532250;28;20591;-85
2022/05/16 05:22:16;;;;;;;4.73;4.30;;;19.00;99.90;;;;;;10533770;28;20200;-85
2022/05/16 05:27:20;;;;;;;4.63;4.13;;;19.10;99.90;;;;;;10551985;28;20220;-85
2022/05/16 05:32:22;;;;;;;5.10;4.60;;;19.20;99.90;;;;;;10555013;28;20290;-85
2022/05/16 05:37:24;;;;;;;5.03;4.53;;;19.30;99.90;;;;;;10530829;28;20273;-86
2022/05/16 05:42:28;;;;;;;5.00;4.63;;;19.40;99.90;;;;;;10544634;28;20207;-86
2022/05/16 05:47:30;;;;;;;5.30;4.47;;;19.50;99.90;;;;;;10558518;22;20758;-77
2022/05/16 05:52:32;;;;;;;4.40;4.10;;;19.50;99.90;;;;;;10559435;28;20200;-77
2022/05/16 05:57:36;;;;;;;4.27;3.90;;;19.60;99.90;;;;;;10543196;28;20216;-79
2022/05/16 06:02:40;;;;;;;4.50;4.20;;;19.70;99.90;;;;;;10512632;28;20306;-79
2022/05/16 06:07:42;;;;;;;4.40;4.10;;;19.70;99.90;;;;;;10517549;28;20220;-78
2022/05/16 06:12:46;;;;;;;4.60;4.30;;;19.80;99.90;;;;;;10523826;28;20208;-79
2022/05/16 06:17:49;;;;;;;4.30;4.00;;;19.90;99.90;;;;;;10529710;28;20246;-79
2022/05/16 06:22:51;;;;;;;3.87;3.60;;;20.00;99.90;;;;;;10538706;28;20196;-78
2022/05/16 06:27:55;;;;;;;4.53;4.23;;;20.20;99.90;;;;;;10524464;28;20223;-79
2022/05/16 06:32:57;;;;;;;4.80;4.50;;;20.30;99.90;;;;;;10541663;28;20207;-79
2022/05/16 06:38:08;;;;;;;4.83;4.50;;;20.50;99.90;;;;;;10523910;28;20254;-79
2022/05/16 06:43:12;;;;;;;5.40;4.93;;;20.50;99.90;;;;;;10536653;28;20222;-79
2022/05/16 06:48:14;;;;;;;5.03;4.60;;;20.50;99.90;;;;;;10520225;28;20232;-79
2022/05/16 06:53:19;;;;;;;3.80;3.50;;;20.50;99.90;;;;;;10539658;28;20299;-79
2022/05/16 06:58:24;;;;;;;4.60;4.30;;;20.80;99.90;;;;;;10537664;28;20223;-79
2022/05/16 07:03:26;;;;;;;4.50;4.10;;;21.10;99.90;;;;;;10497258;28;20203;-79
2022/05/16 07:08:28;;;;;;;4.40;4.00;;;21.30;99.90;;;;;;10543773;28;20215;-79
2022/05/16 07:13:32;;;;;;;4.07;3.77;;;21.60;98.50;;;;;;10516451;28;20204;-79
2022/05/16 07:18:34;;;;;;;5.17;4.50;;;22.00;96.90;;;;;;10491558;28;20757;-79
2022/05/16 07:23:36;;;;;;;4.07;3.63;;;22.30;95.90;;;;;;10543772;28;20227;-79
2022/05/16 07:28:40;;;;;;;6.20;4.07;;;22.80;96.10;;;;;;10521674;28;20218;-80
2022/05/16 07:33:42;;;;;;;4.20;3.77;;;23.50;95.40;;;;;;10551296;28;20216;-79
2022/05/16 07:38:44;;;;;;;4.10;3.80;;;23.90;94.50;;;;;;10510645;28;20224;-79
2022/05/16 07:43:47;;;;;;;5.83;4.07;;;24.10;94.40;;;;;;10536366;28;20245;-80
2022/05/16 07:48:50;;;;;;;5.83;3.83;;;24.10;95.10;;;;;;10519547;28;20270;-80
2022/05/16 07:53:52;;;;;;;4.30;3.93;;;24.00;94.60;;;;;;10520331;28;20667;-80
2022/05/16 07:58:56;;;;;;;5.03;4.73;;;23.90;95.70;;;;;;10510629;28;20764;-78
2022/05/16 08:03:58;;;;;;;5.63;5.00;;;23.90;96.00;;;;;;10538897;28;20208;-79
2022/05/16 08:14:28;;;;;;;6.43;5.87;;;23.30;97.90;;;;;;10533953;28;20280;-78
2022/05/16 08:19:33;;;;;;;9.70;5.70;;;22.70;99.70;;;;;;10534223;28;20230;-78
2022/05/16 08:24:36;;;;;;;7.50;6.73;;;22.40;99.90;;;;;;10527666;28;20271;-78
2022/05/16 08:29:39;;;;;;;8.20;6.90;;;22.20;99.90;;;;;;10532636;28;20196;-79
2022/05/16 08:34:44;;;;;;;7.20;6.60;;;21.90;99.90;;;;;;10533517;28;20216;-78
2022/05/16 08:39:54;;;;;;;7.43;6.33;;;21.90;99.90;;;;;;10532270;28;20227;-79
2022/05/16 08:45:04;;;;;;;7.90;7.13;;;22.00;99.90;;;;;;10528821;28;20243;-79
2022/05/16 08:50:14;;;;;;;7.90;7.20;;;22.10;99.90;;;;;;10538290;28;20231;-78
2022/05/16 08:55:27;;;;;;;6.67;6.17;;;22.40;99.90;;;;;;10526488;28;20211;-79
2022/05/16 09:00:37;;;;;;;7.00;6.40;;;22.80;99.90;;;;;;10526014;28;20219;-80
2022/05/16 09:05:45;;;;;;;6.63;5.50;;;23.30;99.90;;;;;;10549519;28;20211;-80
2022/05/16 09:11:04;;;;;;;6.27;5.67;;;24.00;99.90;;;;;;10511872;28;20280;-80
2022/05/16 09:16:16;;;;;;;5.60;5.20;;;24.70;99.90;;;;;;10489401;28;20577;-80
2022/05/16 09:21:25;;;;;;;6.23;5.20;;;24.90;99.40;;;;;;10501485;28;20196;-79
2022/05/16 09:26:36;;;;;;;5.47;5.00;;;25.10;99.90;;;;;;10492635;28;20204;-79
2022/05/16 09:31:42;;;;;;;6.37;5.20;;;25.50;99.10;;;;;;10509382;28;20279;-79
2022/05/16 09:36:48;;;;;;;5.73;5.23;;;25.90;99.50;;;;;;10517103;28;20216;-79
2022/05/16 09:41:57;;;;;;;5.50;5.07;;;26.10;98.20;;;;;;10527121;28;20231;-79
2022/05/16 09:47:41;;;;;;;5.67;5.10;;;26.30;97.80;;;;;;10483287;28;20223;-78
2022/05/16 09:52:48;;;;;;;5.37;4.40;;;26.40;94.10;;;;;;10438799;28;20575;-79
2022/05/16 09:57:55;;;;;;;6.37;5.77;;;26.30;96.50;;;;;;10513975;28;20637;-79
2022/05/16 10:03:14;;;;;;;5.23;4.83;;;26.30;96.40;;;;;;10502609;28;20203;-79
2022/05/16 10:08:25;;;;;;;7.47;4.90;;;26.20;95.60;;;;;;10525491;28;20773;-79
2022/05/16 10:13:28;;;;;;;4.23;3.83;;;26.70;95.60;;;;;;10544176;28;20250;-78
2022/05/16 10:18:37;;;;;;;6.83;4.83;;;27.60;94.80;;;;;;10535781;28;20224;-79
2022/05/16 10:23:43;;;;;;;8.43;5.20;;;27.70;93.70;;;;;;10539040;28;20290;-79
2022/05/16 10:28:49;;;;;;;5.33;4.93;;;27.40;92.50;;;;;;10531307;28;20268;-79
2022/05/16 10:33:55;;;;;;;4.67;4.17;;;27.30;94.30;;;;;;10497251;28;20813;-80
2022/05/16 10:39:04;;;;;;;5.20;4.67;;;27.10;93.80;;;;;;10533335;28;20220;-80
2022/05/16 10:44:17;;;;;;;4.93;4.60;;;26.70;93.30;;;;;;10514393;28;20214;-80
2022/05/16 10:49:22;;;;;;;4.97;4.57;;;26.20;93.30;;;;;;10542225;28;20589;-79
2022/05/16 10:54:26;;;;;;;5.40;4.90;;;25.80;95.30;;;;;;10501870;28;20234;-79
2022/05/16 10:59:58;;;;;;;3.80;3.50;;;25.50;94.70;;;;;;10524625;28;20227;-80
2022/05/16 11:05:21;;;;;;;4.63;4.00;;;25.20;95.00;;;;;;10486046;28;20239;-80
2022/05/16 11:10:32;;;;;;;4.83;4.10;;;24.90;94.50;;;;;;10536121;28;20305;-79
2022/05/16 11:15:40;;;;;;;11.20;4.00;;;24.60;95.00;;;;;;10519995;28;20216;-79
2022/05/16 11:20:52;;;;;;;4.50;4.10;;;24.40;93.40;;;;;;10504145;28;20248;-79
2022/05/16 11:25:59;;;;;;;6.00;4.33;;;24.30;94.10;;;;;;10496616;28;20217;-79
2022/05/16 11:31:05;;;;;;;5.10;4.57;;;24.10;92.90;;;;;;10497549;28;20188;-79
2022/05/16 11:36:17;;;;;;;5.23;4.67;;;23.80;93.90;;;;;;10499554;28;20207;-79
2022/05/16 11:41:46;;;;;;;4.13;3.60;;;23.60;94.30;;;;;;10529258;28;20668;-78
2022/05/16 11:46:53;;;;;;;7.83;3.90;;;23.50;94.90;;;;;;10546177;22;20246;-84
2022/05/16 11:52:09;;;;;;;3.00;2.80;;;23.30;93.70;;;;;;10538771;28;20208;-84
2022/05/16 12:02:39;;;;;;;3.57;3.27;;;23.00;92.50;;;;;;10533564;28;20658;-87
2022/05/16 12:07:48;;;;;;;2.83;2.60;;;22.80;91.70;;;;;;10519263;28;20219;-84
2022/05/16 12:13:18;;;;;;;4.23;3.37;;;22.70;92.50;;;;;;10519804;28;20252;-85
2022/05/16 12:18:35;;;;;;;2.80;2.57;;;22.60;93.30;;;;;;10526576;28;20220;-84
2022/05/16 12:24:00;;;;;;;4.50;3.77;;;22.40;95.60;;;;;;10518286;28;20654;-85
2022/05/16 12:29:16;;;;;;;4.60;4.20;;;22.20;97.90;;;;;;10511967;28;20247;-87
2022/05/16 12:34:43;;;;;;;6.20;5.90;;;21.60;99.90;;;;;;10520880;28;20203;-87
2022/05/16 12:40:03;;;;;;;5.83;5.43;;;20.90;99.90;;;;;;10512535;28;20666;-85
2022/05/16 12:45:19;;;;;;;6.63;6.33;;;20.40;99.90;;;;;;10512299;28;20703;-87
2022/05/16 12:50:56;;;;;;;7.70;7.03;;;20.10;99.90;;;;;;10520922;28;20192;-85
2022/05/16 12:56:08;;;;;;;8.03;7.17;;;19.80;99.90;;;;;;10507982;28;20684;-85
2022/05/16 13:01:20;;;;;;;11.43;7.23;;;19.70;99.90;;;;;;10511133;28;20223;-86
2022/05/16 13:06:38;;;;;;;8.30;7.60;;;19.60;99.90;;;;;;10513727;28;20250;-85
2022/05/16 13:11:49;;;;;;;8.10;7.50;;;19.60;99.90;;;;;;10536321;28;20206;-85
2022/05/16 13:16:54;;;;;;;7.77;7.13;;;19.80;99.90;;;;;;10510379;28;20698;-86
2022/05/16 13:22:02;;;;;;;6.60;6.20;;;20.10;99.90;;;;;;10514891;28;20253;-86
2022/05/16 13:32:29;;;;;;;5.67;5.37;;;20.70;99.90;;;;;;10540014;28;20195;-86
2022/05/16 13:37:40;;;;;;;5.30;5.00;;;21.00;99.90;;;;;;10524864;28;20671;-87
2022/05/16 13:42:45;;;;;;;5.40;4.93;;;21.20;99.90;;;;;;10521266;28;20730;-85
2022/05/16 13:47:47;;;;;;;6.07;5.40;;;21.40;99.90;;;;;;10539746;28;20224;-85
2022/05/16 13:52:50;;;;;;;4.37;4.07;;;21.50;99.90;;;;;;10529366;28;20249;-86
2022/05/16 13:57:54;;;;;;;5.33;5.03;;;21.70;99.90;;;;;;10541371;28;20424;-85
2022/05/16 14:02:59;;;;;;;4.77;4.37;;;21.70;99.90;;;;;;10527854;28;20208;-86
2022/05/16 14:08:02;;;;;;;5.33;4.93;;;21.70;99.90;;;;;;10508862;28;20310;-86
2022/05/16 14:13:10;;;;;;;5.37;4.67;;;21.70;99.90;;;;;;10510235;28;20193;-83
2022/05/16 14:18:24;;;;;;;5.30;4.90;;;21.60;99.90;;;;;;10488487;28;20319;-85
2022/05/16 14:23:43;;;;;;;6.17;5.57;;;21.60;99.90;;;;;;10508243;28;20215;-84
2022/05/16 14:28:48;;;;;;;5.07;4.67;;;21.60;99.90;;;;;;10471361;28;20228;-84
2022/05/16 14:34:00;;;;;;;4.77;4.43;;;21.50;99.90;;;;;;10480789;28;20664;-84
2022/05/16 14:39:16;;;;;;;5.23;4.80;;;21.50;99.90;;;;;;10499985;28;20223;-85
2022/05/16 14:44:33;;;;;;;5.23;4.83;;;21.70;99.90;;;;;;10509634;28;20263;-86
2022/05/16 14:49:35;;;;;;;5.30;4.90;;;21.70;99.90;;;;;;10519870;28;20722;-84
2022/05/16 14:54:40;;;;;;;5.13;4.43;;;21.70;99.90;;;;;;10503293;28;20219;-87
2022/05/16 14:59:44;;;;;;;5.73;4.70;;;21.70;99.90;;;;;;10503387;28;20220;-85
2022/05/16 15:04:46;;;;;;;4.90;4.50;;;21.60;99.90;;;;;;10524735;28;20215;-88
2022/05/16 15:09:49;;;;;;;4.70;4.17;;;21.60;99.90;;;;;;10523237;28;20207;-84
2022/05/16 15:14:52;;;;;;;6.10;4.70;;;21.60;99.90;;;;;;10498450;28;20637;-84
2022/05/16 15:19:55;;;;;;;5.13;4.63;;;21.60;99.90;;;;;;10502187;28;20251;-84
2022/05/16 15:24:58;;;;;;;4.93;4.53;;;21.70;99.90;;;;;;10496802;28;20220;-86
2022/05/16 15:30:04;;;;;;;5.03;4.50;;;21.80;99.90;;;;;;10506546;28;20566;-85
2022/05/16 15:35:07;;;;;;;4.27;3.97;;;22.00;99.90;;;;;;10516305;28;20239;-85
2022/05/16 15:40:11;;;;;;;5.53;4.20;;;22.00;99.90;;;;;;10492666;28;20228;-84
2022/05/16 15:45:15;;;;;;;4.33;4.00;;;22.00;99.90;;;;;;10507340;28;20216;-84
2022/05/16 15:50:20;;;;;;;4.03;3.63;;;22.10;99.90;;;;;;10510935;28;20216;-84
2022/05/16 15:55:23;;;;;;;3.43;3.10;;;22.20;99.90;;;;;;10508762;28;20219;-86
2022/05/16 16:00:27;;;;;;;4.10;3.70;;;22.30;99.90;;;;;;10506867;28;20696;-85
2022/05/16 16:10:48;;;;;;;3.60;3.10;;;22.30;99.90;;;;;;10457690;28;20647;-83
2022/05/16 16:15:52;;;;;;;3.93;2.97;;;22.30;99.90;;;;;;10510515;28;20256;-85
2022/05/16 16:20:55;;;;;;;3.20;3.00;;;22.30;99.90;;;;;;10522533;28;20234;-84
2022/05/16 16:25:57;;;;;;;3.53;2.90;;;22.20;99.90;;;;;;10520708;28;20486;-83
2022/05/16 16:31:01;;;;;;;2.53;2.33;;;22.10;99.90;;;;;;10492436;28;20199;-83
2022/05/16 16:36:05;;;;;;;3.40;3.07;;;22.00;99.90;;;;;;10507375;28;20301;-83
2022/05/16 16:41:08;;;;;;;3.20;2.67;;;21.90;99.90;;;;;;10515132;28;20751;-84
2022/05/16 16:46:13;;;;;;;4.97;2.53;;;21.90;99.90;;;;;;10518781;28;20228;-83
2022/05/16 17:02:01;;;;;;;4.53;2.57;;;21.70;99.90;;;;;;10538877;28;20306;-85
2022/05/16 17:07:07;;;;;;;4.27;2.93;;;21.70;99.90;;;;;;10520426;28;20216;-84
2022/05/16 17:12:11;;;;;;;3.27;2.60;;;21.70;99.90;;;;;;10496586;28;20659;-85
2022/05/16 17:17:15;;;;;;;5.40;3.57;;;21.80;99.90;;;;;;10491089;28;20697;-83
2022/05/16 17:22:18;;;;;;;2.93;2.73;;;21.70;99.90;;;;;;10511066;28;20231;-86
2022/05/16 17:27:20;;;;;;;3.33;3.03;;;21.60;99.90;;;;;;10548695;28;20224;-85
2022/05/16 17:32:24;;;;;;;3.40;3.20;;;21.60;99.90;;;;;;10531756;28;20201;-83
2022/05/16 17:37:26;;;;;;;3.63;3.30;;;21.50;99.90;;;;;;10516687;28;20224;-85
2022/05/16 17:42:29;;;;;;;4.03;2.83;;;21.40;99.90;;;;;;10488562;28;20196;-84
2022/05/16 17:47:32;;;;;;;3.30;3.00;;;21.30;99.90;;;;;;10493299;28;20735;-84
2022/05/16 17:52:43;;;;;;;3.00;2.70;;;21.20;99.90;;;;;;10496842;28;20246;-84
2022/05/16 17:57:46;;;;;;;3.57;3.27;;;21.10;99.90;;;;;;10513957;28;20251;-84
2022/05/16 18:02:52;;;;;;;3.43;3.23;;;21.10;99.90;;;;;;10512828;28;20575;-85
2022/05/16 18:07:54;;;;;;;6.60;3.47;;;21.00;99.90;;;;;;10513240;28;20265;-83
2022/05/16 18:12:57;;;;;;;4.90;2.53;;;21.00;99.90;;;;;;10525062;28;20227;-84
2022/05/16 18:18:01;;;;;;;3.50;2.93;;;20.90;99.90;;;;;;10533911;28;20242;-84
2022/05/16 18:23:04;;;;;;;3.00;2.80;;;20.90;99.90;;;;;;10533415;28;20222;-84
2022/05/16 18:28:07;;;;;;;4.10;3.37;;;20.80;99.90;;;;;;10518343;28;20243;-82
2022/05/16 18:33:13;;;;;;;8.70;3.63;;;20.80;99.90;;;;;;10520704;28;20583;-83
2022/05/16 18:38:15;;;;;;;3.50;3.20;;;20.70;99.90;;;;;;10506979;28;20269;-88
2022/05/16 18:53:58;;;;;;;4.90;2.70;;;20.60;99.90;;;;;;10506372;28;20196;-83
2022/05/16 18:59:00;;;;;;;3.17;2.93;;;20.50;99.90;;;;;;10513287;28;20238;-83
2022/05/16 19:04:04;;;;;;;2.80;2.60;;;20.50;99.90;;;;;;10500118;28;20700;-84
2022/05/16 19:09:06;;;;;;;3.80;3.40;;;20.50;99.90;;;;;;10513356;28;20295;-83
2022/05/16 19:14:09;;;;;;;3.70;3.50;;;20.50;99.90;;;;;;10479243;28;20696;-83
2022/05/16 19:19:12;;;;;;;3.77;3.47;;;20.40;99.90;;;;;;10506316;28;20208;-86
2022/05/16 19:24:14;;;;;;;4.03;3.73;;;20.40;99.90;;;;;;10511762;28;20235;-85
2022/05/16 19:34:39;;;;;;;3.63;3.40;;;20.30;99.90;;;;;;10509576;28;20216;-85
2022/05/16 19:39:45;;;;;;;5.13;3.87;;;20.20;99.90;;;;;;10509932;28;20315;-83
2022/05/16 19:44:48;;;;;;;4.50;4.10;;;20.10;99.90;;;;;;10499265;28;20652;-83
2022/05/16 19:49:52;;;;;;;5.23;3.90;;;20.10;99.90;;;;;;10517807;28;20679;-84
2022/05/16 19:54:54;;;;;;;4.20;3.90;;;20.10;99.90;;;;;;10508979;28;20216;-84
2022/05/16 19:59:58;;;;;;;4.00;3.70;;;20.00;99.90;;;;;;10541406;28;20211;-84
2022/05/16 20:05:01;;;;;;;3.90;3.60;;;20.00;99.90;;;;;;10533040;28;20215;-84
2022/05/16 20:10:04;;;;;;;4.10;3.80;;;19.90;99.90;;;;;;10510236;28;20227;-83
2022/05/16 20:15:07;;;;;;;4.13;3.73;;;19.90;99.90;;;;;;10509046;28;20223;-83
2022/05/16 20:20:12;;;;;;;5.37;3.90;;;19.90;99.90;;;;;;10502889;28;20228;-84
2022/05/16 20:25:26;;;;;;;5.10;4.17;;;19.90;99.90;;;;;;10504613;28;20224;-83
2022/05/16 20:30:31;;;;;;;8.17;3.30;;;19.80;99.90;;;;;;10506172;28;20288;-84
2022/05/16 20:35:45;;;;;;;6.00;4.33;;;19.80;99.90;;;;;;10512513;28;20212;-85
2022/05/16 20:40:50;;;;;;;3.67;3.37;;;19.80;99.90;;;;;;10521303;28;20247;-83
2022/05/16 20:45:53;;;;;;;3.33;3.10;;;19.80;99.90;;;;;;10497488;28;20228;-85
2022/05/16 20:50:57;;;;;;;4.07;3.43;;;19.70;99.90;;;;;;10514081;28;20681;-83
2022/05/16 20:55:59;;;;;;;3.80;3.50;;;19.70;99.90;;;;;;10532651;28;20220;-84
2022/05/16 21:01:03;;;;;;;7.10;4.80;;;19.70;99.90;;;;;;10516919;28;20224;-84
2022/05/16 21:06:07;;;;;;;4.90;4.07;;;19.70;99.90;;;;;;10518095;28;20272;-84
2022/05/16 21:11:10;;;;;;;3.90;3.43;;;19.60;99.90;;;;;;10548600;28;20200;-82
2022/05/16 21:16:12;;;;;;;3.90;3.60;;;19.60;99.90;;;;;;10533641;28;20227;-84
2022/05/16 21:21:16;;;;;;;5.97;3.93;;;19.60;99.90;;;;;;10546689;28;20680;-84
2022/05/16 21:26:18;;;;;;;5.20;3.93;;;19.50;99.90;;;;;;10527768;28;20247;-85
2022/05/16 21:31:21;;;;;;;3.53;3.23;;;19.40;99.90;;;;;;10517198;28;20202;-85
2022/05/16 21:36:25;;;;;;;5.17;3.40;;;19.40;99.90;;;;;;10527272;28;20311;-85
2022/05/16 21:41:27;;;;;;;5.03;3.37;;;19.30;99.90;;;;;;10519157;28;20223;-86
2022/05/16 21:46:29;;;;;;;4.63;4.23;;;19.20;99.90;;;;;;10517220;28;20769;-86
2022/05/16 21:51:33;;;;;;;3.60;2.80;;;19.10;99.90;;;;;;10511521;28;20204;-85
2022/05/16 21:56:35;;;;;;;6.93;4.23;;;19.10;99.90;;;;;;10518474;28;20220;-87
2022/05/16 22:01:37;;;;;;;7.33;3.83;;;19.00;99.90;;;;;;10531596;28;20216;-85
2022/05/16 22:06:41;;;;;;;4.10;3.63;;;19.00;99.90;;;;;;10516751;28;20216;-85
2022/05/16 22:11:47;;;;;;;4.00;3.80;;;18.90;99.90;;;;;;10529473;28;20213;-85
2022/05/16 22:16:49;;;;;;;4.70;4.20;;;18.80;99.90;;;;;;10505189;28;20221;-85
2022/05/16 22:21:53;;;;;;;4.63;4.23;;;18.80;99.90;;;;;;10528016;28;20220;-87
2022/05/16 22:26:57;;;;;;;4.40;3.73;;;18.80;99.90;;;;;;10528484;28;20220;-86
2022/05/16 22:31:59;;;;;;;6.07;3.90;;;18.70;99.90;;;;;;10524907;28;20340;-86
2022/05/16 22:37:03;;;;;;;4.20;3.80;;;18.70;99.90;;;;;;10481432;28;20212;-85
2022/05/16 22:42:09;;;;;;;3.87;3.67;;;18.60;99.90;;;;;;10527504;28;20266;-85
2022/05/16 22:47:11;;;;;;;4.47;4.03;;;18.60;99.90;;;;;;10505933;28;20315;-84
2022/05/16 22:52:15;;;;;;;8.10;4.10;;;18.50;99.90;;;;;;10520690;28;20513;-84
2022/05/16 22:57:17;;;;;;;6.67;4.60;;;18.40;99.90;;;;;;10505140;28;20263;-82
2022/05/16 23:07:41;;;;;;;4.70;4.30;;;18.30;99.90;;;;;;10488706;28;20757;-84
2022/05/16 23:12:44;;;;;;;4.83;4.43;;;18.30;99.90;;;;;;10485450;28;20192;-83
2022/05/16 23:17:47;;;;;;;4.07;3.77;;;18.20;99.90;;;;;;10502212;28;20582;-83
2022/05/16 23:22:51;;;;;;;8.37;4.83;;;18.20;99.90;;;;;;10499967;28;20255;-83
2022/05/16 23:27:53;;;;;;;7.57;4.50;;;18.20;99.90;;;;;;10492699;28;20307;-83
2022/05/16 23:32:56;;;;;;;5.40;3.80;;;18.20;99.90;;;;;;10517666;28;20197;-82
2022/05/16 23:38:01;;;;;;;5.87;3.87;;;18.20;99.90;;;;;;10536365;28;20280;-83
2022/05/16 23:43:04;;;;;;;6.00;4.30;;;18.10;99.90;;;;;;10526327;28;20219;-84
2022/05/16 23:48:06;;;;;;;3.90;3.70;;;18.10;99.90;;;;;;10517076;28;20224;-82
2022/05/16 23:53:10;;;;;;;3.90;3.60;;;18.10;99.90;;;;;;10525570;28;20260;-83
2022/05/16 23:58:12;;;;;;;7.30;4.23;;;18.00;99.90;;;;;;10542524;28;20243;-85
